Time;durP1;ratioP1;P1;durP2;ratioP2;P2;SDS_P1;SDS_P2;PMS_P1;PMS_P2;Temp;Humidity;BMP_temperature;BMP_pressure;BME280_temperature;BME280_humidity;BME280_pressure;Samples;Min_cycle;Max_cycle;Signal;HPM_P1;HPM_P2
2023/01/11 00:00:46;;;;;;;8.85;5.18;;;6.60;96.70;;;;;;5044122;28;20829;-73
2023/01/11 00:03:16;;;;;;;7.75;5.03;;;6.50;96.70;;;;;;5043804;28;20120;-73
2023/01/11 00:05:44;;;;;;;6.75;5.20;;;6.30;96.70;;;;;;5076753;28;20041;-73
2023/01/11 00:08:12;;;;;;;7.68;4.32;;;6.30;96.70;;;;;;5045430;28;20686;-73
2023/01/11 00:10:41;;;;;;;7.55;4.45;;;6.20;96.70;;;;;;5043883;28;20041;-73
2023/01/11 00:13:09;;;;;;;7.38;5.03;;;6.20;96.70;;;;;;5045496;28;20041;-73
2023/01/11 00:15:39;;;;;;;9.65;5.00;;;6.30;96.70;;;;;;5045304;28;20048;-74
2023/01/11 00:18:08;;;;;;;8.52;5.32;;;6.30;96.70;;;;;;5043776;28;20513;-74
2023/01/11 00:20:38;;;;;;;8.20;5.22;;;6.30;96.70;;;;;;5044974;28;20091;-74
2023/01/11 00:23:07;;;;;;;8.73;5.53;;;6.20;96.70;;;;;;5045014;28;20041;-74
2023/01/11 00:25:35;;;;;;;9.23;5.53;;;6.20;96.70;;;;;;5043433;28;20052;-73
2023/01/11 00:28:05;;;;;;;11.63;6.38;;;6.30;96.70;;;;;;5045508;28;20130;-75
2023/01/11 00:30:34;;;;;;;11.13;6.75;;;6.20;96.70;;;;;;5025877;28;20490;-73
2023/01/11 00:33:04;;;;;;;10.30;6.72;;;6.20;96.70;;;;;;5041595;28;20058;-73
2023/01/11 00:35:32;;;;;;;10.85;6.97;;;6.10;96.70;;;;;;5044607;28;20087;-73
2023/01/11 00:38:01;;;;;;;9.90;7.03;;;6.10;96.70;;;;;;5043213;28;20414;-73
2023/01/11 00:40:29;;;;;;;9.95;6.35;;;6.10;96.70;;;;;;5026712;28;20597;-72
2023/01/11 00:48:32;;;;;;;11.25;6.63;;;6.10;96.70;;;;;;5044392;28;20053;-73
2023/01/11 00:51:01;;;;;;;9.88;6.53;;;6.10;96.70;;;;;;5026297;28;20048;-73
2023/01/11 00:53:29;;;;;;;10.68;6.32;;;6.10;96.70;;;;;;5042990;28;20044;-73
2023/01/11 00:55:57;;;;;;;10.25;6.85;;;6.20;96.70;;;;;;5044268;28;20044;-73
2023/01/11 00:58:26;;;;;;;11.50;7.43;;;6.10;96.70;;;;;;5025683;28;20587;-73
2023/01/11 01:00:54;;;;;;;10.43;6.70;;;6.10;96.70;;;;;;5042701;28;20377;-74
2023/01/11 01:03:22;;;;;;;11.75;6.88;;;6.00;96.70;;;;;;5041966;28;20076;-71
2023/01/11 01:05:55;;;;;;;11.55;7.53;;;6.00;96.70;;;;;;5030896;28;20054;-73
2023/01/11 01:08:23;;;;;;;13.63;7.43;;;6.00;96.70;;;;;;5044265;28;20118;-73
2023/01/11 01:10:51;;;;;;;10.38;6.82;;;6.00;96.70;;;;;;5043995;28;20029;-73
2023/01/11 01:16:07;;;;;;;13.65;6.60;;;5.90;96.70;;;;;;5042553;28;20056;-73
2023/01/11 01:18:35;;;;;;;10.82;6.75;;;5.90;96.70;;;;;;5042454;28;20541;-73
2023/01/11 01:21:06;;;;;;;9.35;6.13;;;6.00;96.70;;;;;;5043649;28;20404;-72
2023/01/11 01:23:34;;;;;;;10.77;5.75;;;6.00;96.70;;;;;;5043663;28;20045;-72
2023/01/11 01:26:03;;;;;;;9.20;5.30;;;5.80;96.70;;;;;;5043665;28;20522;-72
2023/01/11 01:28:32;;;;;;;8.40;5.40;;;5.70;96.70;;;;;;5042489;28;20119;-73
2023/01/11 01:31:00;;;;;;;8.55;5.40;;;5.70;96.70;;;;;;5043674;28;20033;-72
2023/01/11 01:33:28;;;;;;;9.38;5.70;;;5.80;96.70;;;;;;5043442;28;20052;-72
2023/01/11 01:35:56;;;;;;;7.72;5.00;;;5.70;96.70;;;;;;5040162;28;20071;-73
2023/01/11 01:38:27;;;;;;;8.70;5.30;;;5.80;96.70;;;;;;5042056;28;20053;-73
2023/01/11 01:40:58;;;;;;;9.48;5.88;;;5.80;96.70;;;;;;5043424;28;20067;-73
2023/01/11 01:43:47;;;;;;;10.98;6.05;;;5.80;96.70;;;;;;5042803;28;20125;-73
2023/01/11 01:46:15;;;;;;;8.48;5.25;;;5.90;96.70;;;;;;5043316;28;20057;-73
2023/01/11 01:48:47;;;;;;;6.75;4.53;;;5.80;96.70;;;;;;5043466;28;20033;-72
2023/01/11 01:51:20;;;;;;;7.47;4.65;;;5.90;96.70;;;;;;5034328;28;20075;-72
2023/01/11 01:53:52;;;;;;;8.57;4.90;;;5.80;96.70;;;;;;5043159;28;20138;-71
2023/01/11 01:56:26;;;;;;;9.02;4.78;;;5.70;96.70;;;;;;5025039;28;20045;-72
2023/01/11 01:58:58;;;;;;;7.65;4.53;;;5.60;96.70;;;;;;5025386;28;20045;-72
2023/01/11 02:04:16;;;;;;;;;;;5.70;96.70;;;;;;5043857;28;20453;-72
2023/01/11 02:06:45;;;;;;;9.07;4.85;;;5.70;96.70;;;;;;5034113;28;19924;-73
2023/01/11 02:09:24;;;;;;;8.43;5.00;;;5.60;96.70;;;;;;5041232;28;20404;-72
2023/01/11 02:11:54;;;;;;;6.72;4.72;;;5.50;96.70;;;;;;5042732;28;20049;-72
2023/01/11 02:14:23;;;;;;;7.97;4.97;;;5.50;96.70;;;;;;5038943;28;20072;-72
2023/01/11 02:16:51;;;;;;;7.05;4.32;;;5.50;96.70;;;;;;5022216;28;20736;-73
2023/01/11 02:19:38;;;;;;;8.13;4.78;;;5.50;96.70;;;;;;5040458;28;20569;-73
2023/01/11 02:22:25;;;;;;;6.38;4.40;;;5.60;96.70;;;;;;5038292;28;20052;-72
2023/01/11 02:25:29;;;;;;;15.63;5.45;;;5.60;96.70;;;;;;5039878;28;20060;-72
2023/01/11 02:28:06;;;;;;;7.70;4.30;;;5.50;96.70;;;;;;5039137;28;20055;-72
2023/01/11 02:30:45;;;;;;;7.63;4.65;;;5.40;96.70;;;;;;5040282;28;20041;-73
2023/01/11 02:33:23;;;;;;;6.78;4.05;;;5.40;96.70;;;;;;5034080;28;20045;-72
2023/01/11 02:36:03;;;;;;;4.38;3.20;;;4.90;96.70;;;;;;5040687;28;20459;-72
2023/01/11 02:38:37;;;;;;;6.70;2.92;;;5.00;96.70;;;;;;5042765;28;20099;-72
2023/01/11 02:41:12;;;;;;;4.53;3.15;;;5.00;96.70;;;;;;5039877;28;20041;-72
2023/01/11 02:46:45;;;;;;;4.65;2.95;;;5.20;96.70;;;;;;5073226;28;20057;-73
2023/01/11 02:49:22;;;;;;;5.22;3.05;;;5.20;96.70;;;;;;5041158;28;20041;-72
2023/01/11 02:51:56;;;;;;;4.35;2.83;;;5.30;96.70;;;;;;5041319;28;20163;-72
2023/01/11 02:54:25;;;;;;;6.90;3.10;;;5.30;96.70;;;;;;5042116;28;20053;-72
2023/01/11 02:56:57;;;;;;;7.18;2.95;;;5.10;96.70;;;;;;5040684;28;20041;-72
2023/01/11 02:59:31;;;;;;;6.85;3.88;;;5.00;96.70;;;;;;5042137;28;20572;-71
2023/01/11 03:02:00;;;;;;;6.03;3.10;;;5.10;96.70;;;;;;5024688;28;20506;-72
2023/01/11 03:04:30;;;;;;;6.00;3.67;;;5.20;96.70;;;;;;5042288;28;20123;-72
2023/01/11 03:07:13;;;;;;;3.88;2.88;;;5.20;96.70;;;;;;5034012;28;20037;-72
2023/01/11 03:09:52;;;;;;;4.03;2.40;;;5.00;96.70;;;;;;5020489;28;20479;-72
2023/01/11 03:12:51;;;;;;;9.95;4.03;;;4.90;96.70;;;;;;5041401;28;20059;-72
2023/01/11 03:15:35;;;;;;;5.05;2.88;;;5.10;96.70;;;;;;5036024;28;20526;-72
2023/01/11 03:18:17;;;;;;;4.68;3.03;;;5.10;96.70;;;;;;5042115;28;20041;-72
2023/01/11 03:20:50;;;;;;;4.85;3.45;;;5.20;96.70;;;;;;5024428;28;20115;-72
2023/01/11 03:23:23;;;;;;;5.57;3.42;;;5.30;96.70;;;;;;5040742;28;20084;-72
2023/01/11 03:25:58;;;;;;;5.32;3.78;;;5.30;96.70;;;;;;5026329;28;20048;-72
2023/01/11 03:28:34;;;;;;;5.32;3.60;;;5.20;96.70;;;;;;5044512;28;20049;-71
2023/01/11 03:31:10;;;;;;;7.00;4.00;;;5.10;96.70;;;;;;5038478;28;20033;-72
2023/01/11 03:33:49;;;;;;;6.72;4.47;;;5.00;96.70;;;;;;5046291;28;20438;-72
2023/01/11 03:36:22;;;;;;;7.80;4.13;;;5.10;96.70;;;;;;5044316;28;20148;-72
2023/01/11 03:38:55;;;;;;;6.63;4.13;;;5.10;96.70;;;;;;5045624;28;20388;-72
2023/01/11 03:41:28;;;;;;;6.85;4.53;;;5.00;96.70;;;;;;5045543;28;20087;-72
2023/01/11 03:43:59;;;;;;;6.35;4.43;;;5.00;96.70;;;;;;5027549;28;20052;-72
2023/01/11 03:46:33;;;;;;;5.95;3.85;;;5.00;96.70;;;;;;5025940;28;20755;-72
2023/01/11 03:49:04;;;;;;;8.10;4.65;;;4.90;96.70;;;;;;5046239;28;20127;-72
2023/01/11 03:51:37;;;;;;;8.77;4.30;;;5.00;96.70;;;;;;5045169;28;20041;-72
2023/01/11 03:54:08;;;;;;;7.82;4.35;;;4.90;96.70;;;;;;5025800;28;20053;-71
2023/01/11 03:56:42;;;;;;;7.63;4.47;;;4.90;96.70;;;;;;5043502;28;20394;-72
2023/01/11 03:59:10;;;;;;;6.70;4.05;;;5.00;96.70;;;;;;5044669;28;20044;-72
2023/01/11 04:01:39;;;;;;;6.85;3.90;;;4.90;96.70;;;;;;5045760;28;20041;-72
2023/01/11 04:04:08;;;;;;;6.13;3.92;;;4.90;96.70;;;;;;5044199;28;20052;-73
2023/01/11 04:06:37;;;;;;;5.93;4.10;;;4.90;96.70;;;;;;5045269;28;20071;-72
2023/01/11 04:09:05;;;;;;;6.65;3.80;;;4.90;96.70;;;;;;5045475;28;20041;-72
2023/01/11 04:11:33;;;;;;;7.18;4.70;;;4.90;96.70;;;;;;5027007;28;20065;-72
2023/01/11 04:14:01;;;;;;;7.82;4.57;;;5.00;96.70;;;;;;5027207;28;20072;-72
2023/01/11 04:16:29;;;;;;;8.45;4.40;;;4.90;96.70;;;;;;5043219;28;20067;-72
2023/01/11 04:19:01;;;;;;;7.20;3.90;;;5.00;96.70;;;;;;5044532;28;20067;-72
2023/01/11 04:21:29;;;;;;;6.05;4.05;;;4.90;96.70;;;;;;5045297;28;20048;-73
2023/01/11 04:23:57;;;;;;;7.60;4.10;;;4.70;96.70;;;;;;5043958;28;20542;-72
2023/01/11 04:26:25;;;;;;;6.40;3.90;;;4.50;96.70;;;;;;5044787;28;20136;-73
2023/01/11 04:28:53;;;;;;;5.78;4.13;;;4.60;96.70;;;;;;5045312;28;20037;-73
2023/01/11 04:31:21;;;;;;;6.45;4.03;;;4.70;96.70;;;;;;5043259;28;20095;-73
2023/01/11 04:33:52;;;;;;;5.47;3.42;;;4.70;96.70;;;;;;5045198;28;20080;-73
2023/01/11 04:36:22;;;;;;;6.03;3.92;;;4.80;96.70;;;;;;5042463;28;20056;-73
2023/01/11 04:38:50;;;;;;;5.43;3.75;;;4.80;96.70;;;;;;5043758;28;20414;-74
2023/01/11 04:44:05;;;;;;;6.47;3.70;;;4.90;96.70;;;;;;5043136;28;20056;-72
2023/01/11 04:46:33;;;;;;;7.90;3.88;;;4.60;96.70;;;;;;5037462;28;20137;-73
2023/01/11 04:49:02;;;;;;;4.53;3.25;;;4.70;96.70;;;;;;5042507;28;20521;-72
2023/01/11 04:51:31;;;;;;;6.78;4.10;;;4.80;96.70;;;;;;5044719;28;20185;-73
2023/01/11 04:54:00;;;;;;;6.85;3.80;;;4.90;96.70;;;;;;5043561;28;20068;-72
2023/01/11 04:56:29;;;;;;;7.45;3.60;;;4.90;96.70;;;;;;5044374;28;20041;-73
2023/01/11 04:58:58;;;;;;;6.03;3.25;;;4.90;96.70;;;;;;5023013;28;20123;-72
2023/01/11 05:01:26;;;;;;;7.07;3.47;;;4.80;96.70;;;;;;5042350;28;20065;-72
2023/01/11 05:03:54;;;;;;;5.40;3.33;;;4.80;96.70;;;;;;5043171;28;20045;-72
2023/01/11 05:06:22;;;;;;;6.57;3.03;;;4.90;96.70;;;;;;5050684;28;20510;-72
2023/01/11 05:08:52;;;;;;;5.10;2.88;;;4.90;96.70;;;;;;5044879;28;20045;-72
2023/01/11 05:11:20;;;;;;;7.35;4.13;;;5.00;96.70;;;;;;5043314;28;20525;-73
2023/01/11 05:13:48;;;;;;;4.90;2.92;;;4.90;96.70;;;;;;5026113;28;20102;-73
2023/01/11 05:16:18;;;;;;;4.03;2.65;;;4.80;96.70;;;;;;5043805;28;20788;-73
2023/01/11 05:18:49;;;;;;;3.13;2.15;;;4.60;96.70;;;;;;5043042;28;20485;-73
2023/01/11 05:21:18;;;;;;;3.75;2.35;;;4.60;96.70;;;;;;5044591;28;20052;-73
2023/01/11 05:23:47;;;;;;;4.22;2.15;;;4.70;96.70;;;;;;5044099;28;20041;-73
2023/01/11 05:26:18;;;;;;;3.13;2.20;;;4.70;96.70;;;;;;5041375;28;20043;-72
2023/01/11 05:28:46;;;;;;;3.13;1.80;;;4.70;96.70;;;;;;5045698;28;20040;-73
2023/01/11 05:31:14;;;;;;;6.32;2.08;;;4.60;96.70;;;;;;5045777;28;20073;-73
2023/01/11 05:33:43;;;;;;;5.07;2.30;;;4.70;96.70;;;;;;5053534;28;20049;-72
2023/01/11 05:36:13;;;;;;;4.80;2.35;;;4.70;96.70;;;;;;5040101;28;20099;-72
2023/01/11 05:38:41;;;;;;;4.60;2.33;;;4.70;96.70;;;;;;5041710;28;20049;-73
2023/01/11 05:41:10;;;;;;;2.83;1.95;;;4.70;96.70;;;;;;5039985;28;20056;-72
2023/01/11 05:46:26;;;;;;;4.15;2.35;;;4.50;96.70;;;;;;5040717;28;20523;-72
2023/01/11 05:48:55;;;;;;;4.30;2.05;;;4.50;96.70;;;;;;5043752;28;20037;-72
2023/01/11 05:51:23;;;;;;;4.80;2.30;;;4.30;96.70;;;;;;5041028;28;20049;-72
2023/01/11 05:53:52;;;;;;;4.75;2.65;;;4.40;96.70;;;;;;5043580;28;20049;-72
2023/01/11 05:56:20;;;;;;;5.28;2.70;;;4.50;96.70;;;;;;5043931;28;20045;-72
2023/01/11 05:58:50;;;;;;;3.97;2.33;;;4.60;96.70;;;;;;5042251;28;20049;-73
2023/01/11 06:01:19;;;;;;;4.22;2.30;;;4.60;96.70;;;;;;5025687;28;20048;-72
2023/01/11 06:03:47;;;;;;;5.40;2.67;;;4.60;96.70;;;;;;5043393;28;20048;-72
2023/01/11 06:06:16;;;;;;;3.30;2.22;;;4.60;96.70;;;;;;5042443;28;20116;-72
2023/01/11 06:08:44;;;;;;;5.03;2.60;;;4.50;96.70;;;;;;5042237;28;20037;-72
2023/01/11 06:11:13;;;;;;;3.95;2.80;;;4.60;96.70;;;;;;5041899;28;20055;-72
2023/01/11 06:13:41;;;;;;;4.43;2.50;;;4.50;96.70;;;;;;5025175;28;20457;-72
2023/01/11 06:16:13;;;;;;;5.50;2.50;;;4.40;96.70;;;;;;5043450;28;20550;-73
2023/01/11 06:18:43;;;;;;;8.65;2.90;;;4.40;96.70;;;;;;5040133;28;20045;-73
2023/01/11 06:21:13;;;;;;;3.90;2.75;;;4.40;96.70;;;;;;5041264;28;20147;-72
2023/01/11 06:23:43;;;;;;;6.43;2.58;;;4.40;96.70;;;;;;5021735;28;20068;-73
2023/01/11 06:26:13;;;;;;;6.15;3.30;;;4.50;96.70;;;;;;5039499;28;20124;-72
2023/01/11 06:28:41;;;;;;;9.77;4.93;;;4.50;96.70;;;;;;5024629;28;20604;-72
2023/01/11 06:31:11;;;;;;;8.00;3.83;;;4.50;96.70;;;;;;5040828;28;20040;-72
2023/01/11 06:33:39;;;;;;;7.05;4.32;;;4.40;96.70;;;;;;5013714;28;20578;-72
2023/01/11 06:36:09;;;;;;;8.45;4.10;;;4.50;96.70;;;;;;5031927;28;20072;-74
2023/01/11 06:38:38;;;;;;;7.32;4.47;;;4.60;96.70;;;;;;5038412;28;20181;-72
2023/01/11 06:41:07;;;;;;;8.35;4.22;;;4.40;96.70;;;;;;5040734;28;20040;-73
2023/01/11 06:43:37;;;;;;;8.48;4.80;;;4.20;96.70;;;;;;5041870;28;20767;-73
2023/01/11 06:46:11;;;;;;;6.20;3.47;;;4.30;96.70;;;;;;5042544;28;20608;-71
2023/01/11 06:48:40;;;;;;;6.38;3.67;;;4.40;96.70;;;;;;5041120;28;20556;-72
2023/01/11 06:51:11;;;;;;;6.03;3.63;;;4.30;96.70;;;;;;5040206;28;20094;-72
2023/01/11 06:53:56;;;;;;;6.70;3.50;;;4.30;96.70;;;;;;5042167;28;20045;-72
2023/01/11 06:56:25;;;;;;;6.13;3.05;;;4.40;96.70;;;;;;5036505;28;20045;-73
2023/01/11 06:58:53;;;;;;;5.75;2.85;;;4.10;96.70;;;;;;5042581;28;20098;-73
2023/01/11 07:01:24;;;;;;;7.82;2.72;;;4.00;96.70;;;;;;5042030;28;20041;-73
2023/01/11 07:03:53;;;;;;;6.22;3.25;;;4.20;96.70;;;;;;5040012;28;20053;-72
2023/01/11 07:06:21;;;;;;;5.70;3.45;;;4.20;96.70;;;;;;5015300;28;20041;-73
2023/01/11 07:08:49;;;;;;;6.90;3.78;;;4.30;96.70;;;;;;5040574;28;20123;-73
2023/01/11 07:11:17;;;;;;;6.63;3.83;;;4.30;96.70;;;;;;5042376;28;20067;-73
2023/01/11 07:13:46;;;;;;;7.10;3.88;;;4.50;96.70;;;;;;5040865;28;20148;-73
2023/01/11 07:16:16;;;;;;;10.68;3.80;;;4.50;96.70;;;;;;5040531;28;20525;-72
2023/01/11 07:18:46;;;;;;;7.50;3.70;;;4.60;96.70;;;;;;5041269;28;20053;-73
2023/01/11 07:21:14;;;;;;;6.75;3.88;;;4.60;96.70;;;;;;5040554;28;20049;-72
2023/01/11 07:23:43;;;;;;;9.77;4.75;;;4.70;96.70;;;;;;5040539;28;20059;-73
2023/01/11 07:26:11;;;;;;;6.80;3.60;;;4.70;96.70;;;;;;5023180;28;20053;-72
2023/01/11 07:28:39;;;;;;;11.50;4.75;;;4.70;96.70;;;;;;5040592;28;20047;-72
2023/01/11 07:31:08;;;;;;;5.82;3.70;;;4.70;96.70;;;;;;5021345;28;20533;-72
2023/01/11 07:33:36;;;;;;;8.48;3.67;;;4.70;96.70;;;;;;5037296;28;20036;-73
2023/01/11 07:36:06;;;;;;;5.97;3.10;;;4.70;96.70;;;;;;5039718;28;20056;-72
2023/01/11 07:38:35;;;;;;;6.57;3.50;;;4.80;96.70;;;;;;5040684;28;20045;-72
2023/01/11 07:43:10;;;;;;;6.65;4.05;;;4.90;96.70;;;;;;5042495;28;20883;-72
2023/01/11 07:43:51;;;;;;;5.43;3.22;;;4.90;96.70;;;;;;5040386;28;20147;-72
2023/01/11 07:46:19;;;;;;;6.28;3.38;;;5.00;96.70;;;;;;5041261;28;20092;-73
2023/01/11 07:48:48;;;;;;;6.32;3.72;;;4.90;96.70;;;;;;5040681;28;20049;-73
2023/01/11 07:51:19;;;;;;;7.60;4.18;;;5.00;96.70;;;;;;5040455;28;20040;-73
2023/01/11 07:53:47;;;;;;;6.60;4.25;;;5.00;96.70;;;;;;5040327;28;20147;-72
2023/01/11 07:56:16;;;;;;;6.15;3.55;;;5.10;96.70;;;;;;5040568;28;20132;-73
2023/01/11 07:58:44;;;;;;;5.28;3.47;;;5.10;96.70;;;;;;5040306;28;20580;-72
2023/01/11 08:01:12;;;;;;;9.90;4.15;;;5.10;96.70;;;;;;5041426;28;20052;-72
2023/01/11 08:03:40;;;;;;;10.88;4.30;;;5.00;96.70;;;;;;5040559;28;20049;-72
2023/01/11 08:06:09;;;;;;;8.50;4.13;;;5.10;96.70;;;;;;5039448;28;20148;-72
2023/01/11 08:08:39;;;;;;;5.82;3.22;;;5.00;96.70;;;;;;5040016;28;20044;-72
2023/01/11 08:16:40;;;;;;;6.15;3.53;;;5.20;96.70;;;;;;5043717;28;19947;-72
2023/01/11 08:19:14;;;;;;;7.97;3.50;;;5.20;96.70;;;;;;5045514;28;20057;-72
2023/01/11 08:21:43;;;;;;;5.35;3.35;;;5.10;96.70;;;;;;5045485;28;20495;-72
2023/01/11 08:24:13;;;;;;;7.43;3.70;;;5.20;96.70;;;;;;5043783;28;20066;-71
2023/01/11 08:26:41;;;;;;;6.63;3.53;;;5.20;96.70;;;;;;5043144;28;20049;-73
2023/01/11 08:29:10;;;;;;;4.88;3.42;;;5.20;96.70;;;;;;5045113;28;20629;-72
2023/01/11 08:31:38;;;;;;;5.78;3.38;;;5.20;96.70;;;;;;5045069;28;20574;-72
2023/01/11 08:34:08;;;;;;;8.10;4.07;;;5.20;96.70;;;;;;5043944;28;20621;-71
2023/01/11 08:36:36;;;;;;;7.47;3.83;;;5.20;96.70;;;;;;5041195;28;20473;-71
2023/01/11 08:39:05;;;;;;;5.90;3.50;;;5.20;96.70;;;;;;5042554;28;20132;-72
2023/01/11 08:41:34;;;;;;;5.28;3.58;;;5.30;96.70;;;;;;5043484;28;20979;-71
2023/01/11 08:44:03;;;;;;;6.90;4.18;;;5.40;96.70;;;;;;5044599;28;20733;-72
2023/01/11 08:46:33;;;;;;;6.22;3.92;;;5.40;96.70;;;;;;5043263;28;20056;-72
2023/01/11 08:49:01;;;;;;;8.27;3.90;;;5.40;96.70;;;;;;5043425;28;20845;-72
2023/01/11 08:51:36;;;;;;;7.00;4.35;;;5.40;96.70;;;;;;5022394;28;20049;-72
2023/01/11 08:54:07;;;;;;;8.40;4.70;;;5.40;96.70;;;;;;5035615;28;20060;-72
2023/01/11 08:56:37;;;;;;;10.20;4.47;;;5.40;96.70;;;;;;5043454;28;20578;-72
2023/01/11 08:59:08;;;;;;;9.43;4.50;;;5.50;96.70;;;;;;5044062;28;20040;-72
2023/01/11 09:01:37;;;;;;;11.23;4.95;;;5.60;96.70;;;;;;5043308;28;20041;-72
2023/01/11 09:04:05;;;;;;;8.00;5.20;;;5.80;96.70;;;;;;5043766;28;20856;-72
2023/01/11 09:06:51;;;;;;;6.55;4.50;;;6.00;96.70;;;;;;5036860;28;20051;-71
2023/01/11 09:09:19;;;;;;;9.13;4.60;;;6.10;96.70;;;;;;5042860;28;20045;-72
2023/01/11 09:11:56;;;;;;;8.27;4.03;;;6.20;96.70;;;;;;5043198;28;20068;-73
2023/01/11 09:14:25;;;;;;;6.82;3.75;;;6.30;96.70;;;;;;5044033;28;20044;-72
2023/01/11 09:16:54;;;;;;;7.30;4.07;;;6.40;96.70;;;;;;5044296;28;20080;-72
2023/01/11 09:19:23;;;;;;;5.70;3.97;;;6.40;96.70;;;;;;5042704;28;20136;-71
2023/01/11 09:21:52;;;;;;;5.28;3.97;;;6.60;96.70;;;;;;5042939;28;20662;-72
2023/01/11 09:24:21;;;;;;;6.60;4.40;;;6.70;96.70;;;;;;5043855;28;20051;-72
2023/01/11 09:26:50;;;;;;;8.70;4.07;;;6.90;96.70;;;;;;5041930;28;20047;-72
2023/01/11 09:29:19;;;;;;;7.15;3.70;;;7.00;96.70;;;;;;5042755;28;20130;-72
2023/01/11 09:31:47;;;;;;;6.90;3.58;;;7.10;96.70;;;;;;5043862;28;20041;-72
2023/01/11 09:34:16;;;;;;;6.50;3.63;;;7.30;96.70;;;;;;5040062;28;20245;-72
2023/01/11 09:36:47;;;;;;;6.53;3.60;;;7.40;96.70;;;;;;5041038;28;20055;-72
2023/01/11 09:39:19;;;;;;;5.85;3.83;;;7.50;96.70;;;;;;5043044;28;20564;-71
2023/01/11 09:42:16;;;;;;;5.25;3.47;;;7.60;96.70;;;;;;5042503;28;20057;-72
2023/01/11 09:44:50;;;;;;;4.45;3.40;;;7.50;96.70;;;;;;5042274;28;20144;-72
2023/01/11 09:47:28;;;;;;;4.20;3.03;;;7.60;96.70;;;;;;5025669;28;20152;-72
2023/01/11 09:50:00;;;;;;;5.38;3.08;;;7.60;96.70;;;;;;5042368;28;20052;-72
2023/01/11 09:52:35;;;;;;;5.45;2.92;;;7.60;96.70;;;;;;5043846;28;20045;-72
2023/01/11 09:55:09;;;;;;;5.10;3.08;;;7.60;96.70;;;;;;5041706;28;20059;-72
2023/01/11 09:57:52;;;;;;;4.38;2.90;;;7.70;96.70;;;;;;5035398;28;20118;-72
2023/01/11 10:00:27;;;;;;;3.53;2.60;;;7.70;96.70;;;;;;5042109;28;20095;-72
2023/01/11 10:03:43;;;;;;;5.05;2.90;;;7.70;96.70;;;;;;5043745;28;20116;-70
2023/01/11 10:06:18;;;;;;;5.78;3.25;;;7.50;96.70;;;;;;4980583;28;20179;-72
2023/01/11 10:09:03;;;;;;;4.38;2.88;;;7.60;96.70;;;;;;4965762;28;20050;-73
2023/01/11 10:12:05;;;;;;;3.45;2.55;;;7.70;96.70;;;;;;4981202;28;20646;-73
2023/01/11 10:15:11;;;;;;;5.28;2.50;;;7.70;96.70;;;;;;4964846;28;20586;-72
2023/01/11 10:18:26;;;;;;;4.88;2.50;;;7.80;96.70;;;;;;4980975;28;20293;-72
2023/01/11 10:21:22;;;;;;;4.35;2.63;;;7.80;96.70;;;;;;4980531;28;20137;-72
2023/01/11 10:23:57;;;;;;;6.57;3.45;;;7.90;96.70;;;;;;4965061;28;20472;-73
2023/01/11 10:26:28;;;;;;;7.70;3.70;;;8.00;96.70;;;;;;4980889;28;20054;-72
2023/01/11 10:32:12;;;;;;;6.55;3.90;;;8.20;96.70;;;;;;4963093;28;20136;-72
2023/01/11 10:35:19;;;;;;;6.15;3.90;;;8.40;96.70;;;;;;4963239;28;20133;-72
2023/01/11 10:41:03;;;;;;;6.95;3.92;;;8.70;96.70;;;;;;5000024;28;20889;-73
2023/01/11 10:43:36;;;;;;;5.82;4.18;;;8.80;96.70;;;;;;5000254;28;20057;-72
2023/01/11 10:46:09;;;;;;;9.38;4.18;;;9.00;96.70;;;;;;4999551;28;20062;-72
2023/01/11 10:48:40;;;;;;;8.32;4.13;;;9.10;96.70;;;;;;4993067;28;20053;-72
2023/01/11 10:51:25;;;;;;;7.88;5.90;;;9.20;96.70;;;;;;5000033;28;20160;-72
2023/01/11 10:54:00;;;;;;;8.55;6.07;;;9.30;96.70;;;;;;4984360;28;21290;-72
2023/01/11 10:56:44;;;;;;;7.20;5.30;;;9.40;96.70;;;;;;4983959;28;20123;-72
2023/01/11 10:59:55;;;;;;;7.13;4.90;;;9.50;96.70;;;;;;4980334;28;20463;-72
2023/01/11 11:02:48;;;;;;;5.95;4.30;;;9.70;96.70;;;;;;4989069;28;20046;-72
2023/01/11 11:05:29;;;;;;;6.60;4.47;;;9.90;96.70;;;;;;4980348;28;20149;-73
2023/01/11 11:08:01;;;;;;;9.73;5.65;;;10.00;96.70;;;;;;4991562;28;20053;-72
2023/01/11 11:10:33;;;;;;;9.55;5.53;;;10.20;96.70;;;;;;5042762;28;20040;-72
2023/01/11 11:13:09;;;;;;;6.57;5.15;;;10.40;96.70;;;;;;5042418;28;20032;-72
2023/01/11 11:15:43;;;;;;;8.68;5.43;;;10.60;96.70;;;;;;5042054;28;20045;-72
2023/01/11 11:18:11;;;;;;;6.82;4.57;;;10.70;96.70;;;;;;5042576;28;20056;-72
2023/01/11 11:20:42;;;;;;;7.85;4.63;;;10.70;96.70;;;;;;5040119;28;20098;-73
2023/01/11 11:23:15;;;;;;;9.77;4.38;;;10.80;96.70;;;;;;5042787;28;20094;-72
2023/01/11 11:25:48;;;;;;;8.23;4.28;;;10.90;96.70;;;;;;5040811;28;20045;-72
2023/01/11 11:28:35;;;;;;;5.00;4.30;;;10.80;96.70;;;;;;5032358;28;20199;-72
2023/01/11 11:31:06;;;;;;;7.13;4.03;;;10.80;96.70;;;;;;5041618;28;20072;-72
2023/01/11 11:33:35;;;;;;;7.35;3.70;;;10.80;96.70;;;;;;5041688;28;20571;-72
2023/01/11 11:36:07;;;;;;;15.23;7.95;;;10.80;96.70;;;;;;5021647;28;20118;-72
2023/01/11 11:38:37;;;;;;;13.68;7.07;;;10.70;96.70;;;;;;5024560;28;20513;-72
2023/01/11 11:41:07;;;;;;;8.13;4.43;;;10.90;96.70;;;;;;5040020;28;20133;-72
2023/01/11 11:43:36;;;;;;;7.38;4.38;;;11.00;96.70;;;;;;5042130;28;20045;-72
2023/01/11 11:46:18;;;;;;;7.05;3.72;;;11.20;96.70;;;;;;5039927;28;20069;-72
2023/01/11 11:49:12;;;;;;;5.80;3.88;;;11.30;96.70;;;;;;5041069;28;20106;-73
2023/01/11 11:51:44;;;;;;;6.35;4.13;;;11.40;96.70;;;;;;5045959;28;20087;-73
2023/01/11 11:54:19;;;;;;;8.15;4.82;;;11.40;96.70;;;;;;5045522;28;20422;-72
2023/01/11 11:56:48;;;;;;;8.70;4.47;;;11.40;96.70;;;;;;5045742;28;20044;-77
2023/01/11 11:59:19;;;;;;;5.68;3.83;;;11.50;96.70;;;;;;5045439;28;20601;-72
2023/01/11 12:01:54;;;;;;;6.88;4.03;;;11.60;96.70;;;;;;5045038;28;20060;-71
2023/01/11 12:04:31;;;;;;;8.82;4.93;;;11.60;96.70;;;;;;5045228;28;20049;-72
2023/01/11 12:07:16;;;;;;;10.20;5.18;;;11.60;96.70;;;;;;5040618;28;20522;-72
2023/01/11 12:09:47;;;;;;;8.35;5.45;;;11.80;96.70;;;;;;5044034;28;20575;-72
2023/01/11 12:12:19;;;;;;;9.60;5.68;;;11.90;96.70;;;;;;5044728;28;20486;-72
2023/01/11 12:15:19;;;;;;;10.00;7.57;;;12.10;96.70;;;;;;5027553;28;20100;-73
2023/01/11 12:17:48;;;;;;;8.57;6.10;;;12.30;96.70;;;;;;5027476;28;20053;-71
2023/01/11 12:20:28;;;;;;;7.13;5.63;;;12.30;96.70;;;;;;5043756;28;20131;-72
2023/01/11 12:23:13;;;;;;;12.10;6.40;;;12.40;96.70;;;;;;5043588;28;20552;-72
2023/01/11 12:25:51;;;;;;;9.52;6.68;;;12.10;96.70;;;;;;5043961;28;20045;-73
2023/01/11 12:28:30;;;;;;;8.93;6.60;;;11.90;96.70;;;;;;5036885;28;20045;-72
2023/01/11 12:31:03;;;;;;;10.18;6.38;;;11.70;96.70;;;;;;5042706;28;20064;-71
2023/01/11 12:33:39;;;;;;;11.45;6.38;;;11.60;96.70;;;;;;5044085;28;20045;-73
2023/01/11 12:36:14;;;;;;;9.03;6.13;;;11.50;96.70;;;;;;5043185;28;20068;-73
2023/01/11 12:38:53;;;;;;;10.82;6.22;;;11.50;96.70;;;;;;5043461;28;20047;-72
2023/01/11 12:41:55;;;;;;;7.75;5.60;;;11.40;96.70;;;;;;5026720;28;20083;-73
2023/01/11 12:44:48;;;;;;;8.68;5.85;;;11.30;96.70;;;;;;5028182;28;20477;-72
2023/01/11 12:47:47;;;;;;;11.40;6.45;;;11.30;96.70;;;;;;5059352;28;20065;-73
2023/01/11 12:50:20;;;;;;;9.43;6.15;;;11.30;96.70;;;;;;5039317;28;20033;-73
2023/01/11 12:53:08;;;;;;;9.60;5.90;;;11.30;96.70;;;;;;5044654;28;20516;-72
2023/01/11 12:55:51;;;;;;;8.48;5.82;;;11.20;96.70;;;;;;5037997;28;20052;-73
2023/01/11 12:58:24;;;;;;;10.07;5.50;;;11.10;96.70;;;;;;5043668;28;20045;-72
2023/01/11 13:01:11;;;;;;;8.70;6.40;;;11.20;96.70;;;;;;5043553;28;20098;-73
2023/01/11 13:04:04;;;;;;;9.40;5.95;;;11.20;96.70;;;;;;5037701;28;20045;-73
2023/01/11 13:06:39;;;;;;;10.77;6.53;;;11.20;96.70;;;;;;5040100;28;20044;-73
2023/01/11 13:09:19;;;;;;;13.43;6.45;;;11.20;96.70;;;;;;5034297;28;20049;-73
2023/01/11 13:11:57;;;;;;;10.02;6.40;;;11.20;96.70;;;;;;5044166;28;20127;-73
2023/01/11 13:14:43;;;;;;;9.30;6.35;;;11.20;96.70;;;;;;5042204;28;20045;-73
2023/01/11 13:17:21;;;;;;;8.48;5.90;;;11.30;96.70;;;;;;5036885;28;20045;-72
2023/01/11 13:19:58;;;;;;;13.55;7.07;;;11.20;96.70;;;;;;5042610;28;20052;-73
2023/01/11 13:22:29;;;;;;;12.07;7.13;;;11.30;96.70;;;;;;5042593;28;20036;-73
2023/01/11 13:25:01;;;;;;;13.27;7.22;;;11.30;96.70;;;;;;5043408;28;20052;-72
2023/01/11 13:27:32;;;;;;;11.38;6.57;;;11.40;96.70;;;;;;5041166;28;20799;-72
2023/01/11 13:30:01;;;;;;;9.52;6.22;;;11.40;96.70;;;;;;5042293;28;20047;-72
2023/01/11 13:32:33;;;;;;;9.55;6.50;;;11.50;96.70;;;;;;5041728;28;20045;-74
2023/01/11 13:35:07;;;;;;;8.70;6.18;;;11.50;96.70;;;;;;5023466;28;20060;-73
2023/01/11 13:37:41;;;;;;;8.80;5.93;;;11.50;96.70;;;;;;5042305;28;20060;-74
2023/01/11 13:40:19;;;;;;;9.05;5.40;;;11.40;96.70;;;;;;5042806;28;20057;-73
2023/01/11 13:42:51;;;;;;;11.30;5.90;;;11.30;96.70;;;;;;5041195;28;20832;-73
2023/01/11 13:45:24;;;;;;;9.43;6.20;;;11.40;96.70;;;;;;5043288;28;20056;-73
2023/01/11 13:47:55;;;;;;;10.88;6.65;;;11.40;96.70;;;;;;5042080;28;20057;-73
2023/01/11 13:50:29;;;;;;;10.30;6.32;;;11.30;96.70;;;;;;5041845;28;20047;-74
2023/01/11 13:53:08;;;;;;;10.05;6.47;;;11.30;96.70;;;;;;5041821;28;20049;-72
2023/01/11 13:55:42;;;;;;;9.15;6.63;;;11.30;96.70;;;;;;5044075;28;20131;-72